Terminal Aerodrome Forecast
Issued by NWS Central Illinois

Home | Current Version | Previous Version | Text Only | Print | Product List | Glossary On
Versions: 1 2 3 4 5 6 7 8 9 10 11 12 13 14 15
000
FTUS43 KILX 221139
TAFSPI
TAF
KSPI 221139Z 2212/2312 32007KT P6SM SCT250
     FM222000 28005KT P6SM SCT250
     FM230200 18006KT P6SM SCT080 BKN150=

USA.gov is the U.S. government's official web portal to all federal, state and local government web resources and services.